sensor_id;sensor_type;location;lat;lon;timestamp;temperature;humidity
41533;DHT22;27262;-35.248;149.138;2022-12-07T00:00:38;20.90;60.60
41533;DHT22;27262;-35.248;149.138;2022-12-07T00:03:08;20.90;60.50
41533;DHT22;27262;-35.248;149.138;2022-12-07T00:05:38;20.90;60.60
41533;DHT22;27262;-35.248;149.138;2022-12-07T00:08:09;20.90;60.60
41533;DHT22;27262;-35.248;149.138;2022-12-07T00:10:39;20.90;60.60
41533;DHT22;27262;-35.248;149.138;2022-12-07T00:13:10;20.90;60.50
41533;DHT22;27262;-35.248;149.138;2022-12-07T00:15:40;20.90;60.50
41533;DHT22;27262;-35.248;149.138;2022-12-07T00:18:10;20.90;60.40
41533;DHT22;27262;-35.248;149.138;2022-12-07T00:20:41;21.00;60.60
41533;DHT22;27262;-35.248;149.138;2022-12-07T00:23:11;21.00;60.60
41533;DHT22;27262;-35.248;149.138;2022-12-07T00:25:41;21.00;60.50
41533;DHT22;27262;-35.248;149.138;2022-12-07T00:28:11;21.00;60.50
41533;DHT22;27262;-35.248;149.138;2022-12-07T00:30:42;21.00;60.40
41533;DHT22;27262;-35.248;149.138;2022-12-07T00:33:12;21.00;60.40
41533;DHT22;27262;-35.248;149.138;2022-12-07T00:35:43;21.00;60.30
41533;DHT22;27262;-35.248;149.138;2022-12-07T00:38:13;21.00;60.30
41533;DHT22;27262;-35.248;149.138;2022-12-07T00:40:44;21.10;60.30
41533;DHT22;27262;-35.248;149.138;2022-12-07T00:43:23;21.10;60.30
41533;DHT22;27262;-35.248;149.138;2022-12-07T00:45:54;21.10;60.20
41533;DHT22;27262;-35.248;149.138;2022-12-07T00:48:25;21.10;60.20
41533;DHT22;27262;-35.248;149.138;2022-12-07T00:50:55;21.10;60.10
41533;DHT22;27262;-35.248;149.138;2022-12-07T00:53:27;21.10;60.10
41533;DHT22;27262;-35.248;149.138;2022-12-07T00:55:57;21.10;60.00
41533;DHT22;27262;-35.248;149.138;2022-12-07T00:58:28;21.10;60.00
41533;DHT22;27262;-35.248;149.138;2022-12-07T01:01:01;21.10;60.00
41533;DHT22;27262;-35.248;149.138;2022-12-07T01:03:32;21.20;60.00
41533;DHT22;27262;-35.248;149.138;2022-12-07T01:06:04;21.20;60.00
41533;DHT22;27262;-35.248;149.138;2022-12-07T01:08:34;21.20;59.90
41533;DHT22;27262;-35.248;149.138;2022-12-07T01:11:07;21.20;59.80
41533;DHT22;27262;-35.248;149.138;2022-12-07T01:13:38;21.20;59.80
41533;DHT22;27262;-35.248;149.138;2022-12-07T01:16:09;21.20;59.70
41533;DHT22;27262;-35.248;149.138;2022-12-07T01:18:41;21.30;59.70
41533;DHT22;27262;-35.248;149.138;2022-12-07T01:21:23;21.20;59.60
41533;DHT22;27262;-35.248;149.138;2022-12-07T01:23:53;21.30;59.60
41533;DHT22;27262;-35.248;149.138;2022-12-07T01:26:24;21.30;59.60
41533;DHT22;27262;-35.248;149.138;2022-12-07T01:28:55;21.30;59.60
41533;DHT22;27262;-35.248;149.138;2022-12-07T01:31:28;21.30;59.50
41533;DHT22;27262;-35.248;149.138;2022-12-07T01:33:59;21.30;59.50
41533;DHT22;27262;-35.248;149.138;2022-12-07T01:36:35;21.30;59.40
41533;DHT22;27262;-35.248;149.138;2022-12-07T01:39:09;21.40;59.40
41533;DHT22;27262;-35.248;149.138;2022-12-07T01:41:41;21.40;59.40
41533;DHT22;27262;-35.248;149.138;2022-12-07T01:46:54;21.40;59.30
41533;DHT22;27262;-35.248;149.138;2022-12-07T01:49:37;21.40;59.20
41533;DHT22;27262;-35.248;149.138;2022-12-07T01:52:23;21.40;59.70
41533;DHT22;27262;-35.248;149.138;2022-12-07T01:54:59;21.40;59.10
41533;DHT22;27262;-35.248;149.138;2022-12-07T01:57:32;21.40;59.00
41533;DHT22;27262;-35.248;149.138;2022-12-07T02:00:06;21.40;59.00
41533;DHT22;27262;-35.248;149.138;2022-12-07T02:05:33;21.50;58.90
41533;DHT22;27262;-35.248;149.138;2022-12-07T02:08:04;21.40;58.80
41533;DHT22;27262;-35.248;149.138;2022-12-07T02:10:35;21.40;58.70
41533;DHT22;27262;-35.248;149.138;2022-12-07T02:13:12;21.50;58.70
41533;DHT22;27262;-35.248;149.138;2022-12-07T02:15:57;21.50;58.60
41533;DHT22;27262;-35.248;149.138;2022-12-07T02:45:54;21.60;58.30
41533;DHT22;27262;-35.248;149.138;2022-12-07T02:48:26;21.60;58.30
41533;DHT22;27262;-35.248;149.138;2022-12-07T02:50:57;21.60;58.30
41533;DHT22;27262;-35.248;149.138;2022-12-07T03:13:58;21.70;57.90
41533;DHT22;27262;-35.248;149.138;2022-12-07T03:16:20;21.70;57.90
41533;DHT22;27262;-35.248;149.138;2022-12-07T03:19:00;21.70;58.00
41533;DHT22;27262;-35.248;149.138;2022-12-07T03:21:41;21.70;57.90
41533;DHT22;27262;-35.248;149.138;2022-12-07T03:24:19;21.70;57.90
41533;DHT22;27262;-35.248;149.138;2022-12-07T03:27:24;21.70;57.90
41533;DHT22;27262;-35.248;149.138;2022-12-07T03:30:08;21.70;57.70
41533;DHT22;27262;-35.248;149.138;2022-12-07T03:32:52;21.70;58.50
41533;DHT22;27262;-35.248;149.138;2022-12-07T03:35:45;21.70;57.80
41533;DHT22;27262;-35.248;149.138;2022-12-07T03:38:30;21.80;57.80
41533;DHT22;27262;-35.248;149.138;2022-12-07T03:41:27;21.70;57.80
41533;DHT22;27262;-35.248;149.138;2022-12-07T03:43:58;21.80;57.90
41533;DHT22;27262;-35.248;149.138;2022-12-07T03:46:44;21.80;57.90
41533;DHT22;27262;-35.248;149.138;2022-12-07T03:49:43;21.80;57.60
41533;DHT22;27262;-35.248;149.138;2022-12-07T03:57:46;21.80;57.30
41533;DHT22;27262;-35.248;149.138;2022-12-07T04:00:17;21.80;57.40
41533;DHT22;27262;-35.248;149.138;2022-12-07T04:02:52;21.80;57.40
41533;DHT22;27262;-35.248;149.138;2022-12-07T04:05:23;21.90;57.40
41533;DHT22;27262;-35.248;149.138;2022-12-07T04:07:54;21.90;57.30
41533;DHT22;27262;-35.248;149.138;2022-12-07T04:10:24;21.90;57.20
41533;DHT22;27262;-35.248;149.138;2022-12-07T04:12:55;21.90;57.10
41533;DHT22;27262;-35.248;149.138;2022-12-07T04:15:26;21.90;57.10
41533;DHT22;27262;-35.248;149.138;2022-12-07T04:17:56;21.90;57.10
41533;DHT22;27262;-35.248;149.138;2022-12-07T04:20:26;21.90;57.10
41533;DHT22;27262;-35.248;149.138;2022-12-07T04:22:56;21.90;57.10
41533;DHT22;27262;-35.248;149.138;2022-12-07T04:25:27;21.90;57.10
41533;DHT22;27262;-35.248;149.138;2022-12-07T04:27:57;21.90;57.10
41533;DHT22;27262;-35.248;149.138;2022-12-07T04:30:27;21.90;57.10
41533;DHT22;27262;-35.248;149.138;2022-12-07T04:32:57;21.90;57.10
41533;DHT22;27262;-35.248;149.138;2022-12-07T04:35:27;21.90;57.10
41533;DHT22;27262;-35.248;149.138;2022-12-07T04:37:58;21.90;57.10
41533;DHT22;27262;-35.248;149.138;2022-12-07T04:40:28;22.00;57.30
41533;DHT22;27262;-35.248;149.138;2022-12-07T04:42:58;22.00;57.10
41533;DHT22;27262;-35.248;149.138;2022-12-07T04:45:28;21.90;57.10
41533;DHT22;27262;-35.248;149.138;2022-12-07T04:47:59;22.00;57.10
41533;DHT22;27262;-35.248;149.138;2022-12-07T04:50:29;22.00;57.10
41533;DHT22;27262;-35.248;149.138;2022-12-07T04:52:59;22.00;57.20
41533;DHT22;27262;-35.248;149.138;2022-12-07T04:55:31;22.00;57.20
41533;DHT22;27262;-35.248;149.138;2022-12-07T04:58:02;22.00;57.10
41533;DHT22;27262;-35.248;149.138;2022-12-07T05:00:32;22.00;57.10
41533;DHT22;27262;-35.248;149.138;2022-12-07T05:03:03;22.00;57.10
41533;DHT22;27262;-35.248;149.138;2022-12-07T05:05:33;22.00;57.00
41533;DHT22;27262;-35.248;149.138;2022-12-07T05:08:03;22.00;56.90
41533;DHT22;27262;-35.248;149.138;2022-12-07T05:10:34;22.00;56.90
41533;DHT22;27262;-35.248;149.138;2022-12-07T05:13:04;22.00;56.80
41533;DHT22;27262;-35.248;149.138;2022-12-07T05:15:35;22.00;56.80
41533;DHT22;27262;-35.248;149.138;2022-12-07T05:18:05;22.00;56.80
41533;DHT22;27262;-35.248;149.138;2022-12-07T05:20:36;22.10;56.90
41533;DHT22;27262;-35.248;149.138;2022-12-07T05:23:10;22.10;56.80
41533;DHT22;27262;-35.248;149.138;2022-12-07T05:25:40;22.10;56.80
41533;DHT22;27262;-35.248;149.138;2022-12-07T05:28:11;22.00;56.80
41533;DHT22;27262;-35.248;149.138;2022-12-07T05:30:41;22.10;56.80
41533;DHT22;27262;-35.248;149.138;2022-12-07T05:33:11;22.10;56.80
41533;DHT22;27262;-35.248;149.138;2022-12-07T05:35:42;22.10;56.80
41533;DHT22;27262;-35.248;149.138;2022-12-07T05:38:12;22.10;56.80
41533;DHT22;27262;-35.248;149.138;2022-12-07T05:40:53;22.10;56.70
41533;DHT22;27262;-35.248;149.138;2022-12-07T05:43:23;22.10;56.70
41533;DHT22;27262;-35.248;149.138;2022-12-07T05:45:53;22.10;56.60
41533;DHT22;27262;-35.248;149.138;2022-12-07T05:48:24;22.10;56.60
41533;DHT22;27262;-35.248;149.138;2022-12-07T05:50:54;22.10;56.50
41533;DHT22;27262;-35.248;149.138;2022-12-07T05:53:25;22.10;56.50
41533;DHT22;27262;-35.248;149.138;2022-12-07T05:55:55;22.10;56.50
41533;DHT22;27262;-35.248;149.138;2022-12-07T05:58:25;22.10;56.50
41533;DHT22;27262;-35.248;149.138;2022-12-07T06:01:25;22.10;56.40
41533;DHT22;27262;-35.248;149.138;2022-12-07T06:03:56;22.10;56.50
41533;DHT22;27262;-35.248;149.138;2022-12-07T06:06:26;22.10;56.50
41533;DHT22;27262;-35.248;149.138;2022-12-07T06:08:57;22.10;56.40
41533;DHT22;27262;-35.248;149.138;2022-12-07T06:11:27;22.10;56.40
41533;DHT22;27262;-35.248;149.138;2022-12-07T06:14:15;22.10;55.70
41533;DHT22;27262;-35.248;149.138;2022-12-07T06:16:46;22.10;55.60
41533;DHT22;27262;-35.248;149.138;2022-12-07T06:19:16;22.10;55.80
41533;DHT22;27262;-35.248;149.138;2022-12-07T06:21:47;22.10;56.10
41533;DHT22;27262;-35.248;149.138;2022-12-07T06:24:20;22.10;56.20
41533;DHT22;27262;-35.248;149.138;2022-12-07T06:26:51;22.10;56.20
41533;DHT22;27262;-35.248;149.138;2022-12-07T06:29:21;22.10;55.30
41533;DHT22;27262;-35.248;149.138;2022-12-07T06:31:52;22.10;55.70
41533;DHT22;27262;-35.248;149.138;2022-12-07T06:34:24;22.10;55.70
41533;DHT22;27262;-35.248;149.138;2022-12-07T06:36:54;22.20;54.70
41533;DHT22;27262;-35.248;149.138;2022-12-07T06:39:27;22.20;55.10
41533;DHT22;27262;-35.248;149.138;2022-12-07T06:41:59;22.20;54.80
41533;DHT22;27262;-35.248;149.138;2022-12-07T06:44:32;22.20;54.30
41533;DHT22;27262;-35.248;149.138;2022-12-07T06:47:02;22.20;53.70
41533;DHT22;27262;-35.248;149.138;2022-12-07T06:49:54;22.20;54.00
41533;DHT22;27262;-35.248;149.138;2022-12-07T06:52:24;22.20;53.90
41533;DHT22;27262;-35.248;149.138;2022-12-07T06:54:55;22.20;53.70
41533;DHT22;27262;-35.248;149.138;2022-12-07T06:57:26;22.20;53.70
41533;DHT22;27262;-35.248;149.138;2022-12-07T06:59:58;22.20;53.50
41533;DHT22;27262;-35.248;149.138;2022-12-07T07:02:30;22.20;53.50
41533;DHT22;27262;-35.248;149.138;2022-12-07T07:05:02;22.20;52.50
41533;DHT22;27262;-35.248;149.138;2022-12-07T07:07:36;22.20;52.90
41533;DHT22;27262;-35.248;149.138;2022-12-07T07:10:27;22.20;52.90
41533;DHT22;27262;-35.248;149.138;2022-12-07T07:12:58;22.20;52.80
41533;DHT22;27262;-35.248;149.138;2022-12-07T07:15:32;22.20;52.80
41533;DHT22;27262;-35.248;149.138;2022-12-07T07:18:02;22.20;52.70
41533;DHT22;27262;-35.248;149.138;2022-12-07T07:20:36;22.20;52.50
41533;DHT22;27262;-35.248;149.138;2022-12-07T07:23:08;22.20;52.70
41533;DHT22;27262;-35.248;149.138;2022-12-07T07:25:39;22.20;52.70
41533;DHT22;27262;-35.248;149.138;2022-12-07T07:28:11;22.20;52.50
41533;DHT22;27262;-35.248;149.138;2022-12-07T07:30:42;22.30;52.90
41533;DHT22;27262;-35.248;149.138;2022-12-07T07:33:14;22.30;52.90
41533;DHT22;27262;-35.248;149.138;2022-12-07T07:35:45;22.30;52.70
41533;DHT22;27262;-35.248;149.138;2022-12-07T07:38:17;22.30;52.70
41533;DHT22;27262;-35.248;149.138;2022-12-07T07:40:59;22.30;52.90
41533;DHT22;27262;-35.248;149.138;2022-12-07T07:43:33;22.30;53.30
41533;DHT22;27262;-35.248;149.138;2022-12-07T07:46:04;22.40;53.50
41533;DHT22;27262;-35.248;149.138;2022-12-07T07:48:34;22.40;53.70
41533;DHT22;27262;-35.248;149.138;2022-12-07T07:51:08;22.40;53.90
41533;DHT22;27262;-35.248;149.138;2022-12-07T07:53:39;22.40;53.90
41533;DHT22;27262;-35.248;149.138;2022-12-07T07:56:10;22.40;54.10
41533;DHT22;27262;-35.248;149.138;2022-12-07T07:58:40;22.40;54.20
41533;DHT22;27262;-35.248;149.138;2022-12-07T08:01:11;22.40;54.40
41533;DHT22;27262;-35.248;149.138;2022-12-07T08:03:45;22.40;54.50
41533;DHT22;27262;-35.248;149.138;2022-12-07T08:06:17;22.50;54.60
41533;DHT22;27262;-35.248;149.138;2022-12-07T08:08:48;22.50;54.70
41533;DHT22;27262;-35.248;149.138;2022-12-07T08:11:19;22.50;54.60
41533;DHT22;27262;-35.248;149.138;2022-12-07T08:13:50;22.50;54.60
41533;DHT22;27262;-35.248;149.138;2022-12-07T08:16:21;22.60;54.80
41533;DHT22;27262;-35.248;149.138;2022-12-07T08:18:53;22.60;54.80
41533;DHT22;27262;-35.248;149.138;2022-12-07T08:21:24;22.60;54.80
41533;DHT22;27262;-35.248;149.138;2022-12-07T08:23:54;22.60;54.70
41533;DHT22;27262;-35.248;149.138;2022-12-07T08:26:25;22.60;54.60
41533;DHT22;27262;-35.248;149.138;2022-12-07T08:28:55;22.70;54.60
41533;DHT22;27262;-35.248;149.138;2022-12-07T08:31:26;22.70;54.60
41533;DHT22;27262;-35.248;149.138;2022-12-07T08:33:57;22.70;54.50
41533;DHT22;27262;-35.248;149.138;2022-12-07T08:36:28;22.70;54.40
41533;DHT22;27262;-35.248;149.138;2022-12-07T08:38:58;22.70;54.30
41533;DHT22;27262;-35.248;149.138;2022-12-07T08:41:49;22.70;54.20
41533;DHT22;27262;-35.248;149.138;2022-12-07T08:44:21;22.80;54.20
41533;DHT22;27262;-35.248;149.138;2022-12-07T08:46:59;22.80;54.20
41533;DHT22;27262;-35.248;149.138;2022-12-07T08:49:50;23.00;53.70
41533;DHT22;27262;-35.248;149.138;2022-12-07T08:52:26;23.00;53.90
41533;DHT22;27262;-35.248;149.138;2022-12-07T08:55:00;22.90;54.10
41533;DHT22;27262;-35.248;149.138;2022-12-07T08:57:33;22.90;54.20
41533;DHT22;27262;-35.248;149.138;2022-12-07T09:00:05;22.90;54.10
41533;DHT22;27262;-35.248;149.138;2022-12-07T09:02:37;22.90;54.00
41533;DHT22;27262;-35.248;149.138;2022-12-07T09:05:07;22.90;54.10
41533;DHT22;27262;-35.248;149.138;2022-12-07T09:07:46;22.80;54.10
41533;DHT22;27262;-35.248;149.138;2022-12-07T09:10:19;22.90;54.30
41533;DHT22;27262;-35.248;149.138;2022-12-07T09:12:49;22.80;54.30
41533;DHT22;27262;-35.248;149.138;2022-12-07T09:15:24;22.80;54.30
41533;DHT22;27262;-35.248;149.138;2022-12-07T09:17:55;22.80;54.30
41533;DHT22;27262;-35.248;149.138;2022-12-07T09:20:25;22.80;54.30
41533;DHT22;27262;-35.248;149.138;2022-12-07T09:22:59;22.80;54.30
41533;DHT22;27262;-35.248;149.138;2022-12-07T09:25:30;22.80;54.30
41533;DHT22;27262;-35.248;149.138;2022-12-07T09:28:01;22.70;54.30
41533;DHT22;27262;-35.248;149.138;2022-12-07T09:30:32;22.70;54.30
41533;DHT22;27262;-35.248;149.138;2022-12-07T09:33:24;22.70;54.30
41533;DHT22;27262;-35.248;149.138;2022-12-07T09:35:55;22.70;54.30
41533;DHT22;27262;-35.248;149.138;2022-12-07T09:38:28;22.70;54.30
41533;DHT22;27262;-35.248;149.138;2022-12-07T09:41:06;22.70;54.40
41533;DHT22;27262;-35.248;149.138;2022-12-07T09:43:39;22.70;54.40
41533;DHT22;27262;-35.248;149.138;2022-12-07T09:46:14;22.70;54.50
41533;DHT22;27262;-35.248;149.138;2022-12-07T09:48:46;22.60;54.50
41533;DHT22;27262;-35.248;149.138;2022-12-07T09:51:20;22.60;54.60
41533;DHT22;27262;-35.248;149.138;2022-12-07T09:53:55;22.60;54.50
41533;DHT22;27262;-35.248;149.138;2022-12-07T09:56:28;22.60;54.60
41533;DHT22;27262;-35.248;149.138;2022-12-07T09:59:01;22.60;54.60
41533;DHT22;27262;-35.248;149.138;2022-12-07T10:01:35;22.60;54.70
41533;DHT22;27262;-35.248;149.138;2022-12-07T10:04:11;22.60;54.80
41533;DHT22;27262;-35.248;149.138;2022-12-07T10:06:43;22.60;54.80
41533;DHT22;27262;-35.248;149.138;2022-12-07T10:09:17;22.60;54.90
41533;DHT22;27262;-35.248;149.138;2022-12-07T10:12:08;22.60;55.00
41533;DHT22;27262;-35.248;149.138;2022-12-07T10:14:53;22.60;55.00
41533;DHT22;27262;-35.248;149.138;2022-12-07T10:17:48;22.50;55.10
41533;DHT22;27262;-35.248;149.138;2022-12-07T10:20:25;22.50;55.10
41533;DHT22;27262;-35.248;149.138;2022-12-07T10:25:34;22.50;55.20
41533;DHT22;27262;-35.248;149.138;2022-12-07T10:30:48;22.50;55.30
41533;DHT22;27262;-35.248;149.138;2022-12-07T10:33:37;22.50;55.30
41533;DHT22;27262;-35.248;149.138;2022-12-07T10:36:27;22.50;55.40
41533;DHT22;27262;-35.248;149.138;2022-12-07T10:39:20;22.40;55.40
41533;DHT22;27262;-35.248;149.138;2022-12-07T10:42:03;22.40;55.40
41533;DHT22;27262;-35.248;149.138;2022-12-07T10:44:36;22.40;55.40
41533;DHT22;27262;-35.248;149.138;2022-12-07T10:47:29;22.40;55.50
41533;DHT22;27262;-35.248;149.138;2022-12-07T10:53:28;22.40;55.60
41533;DHT22;27262;-35.248;149.138;2022-12-07T11:16:11;22.30;56.00
41533;DHT22;27262;-35.248;149.138;2022-12-07T11:30:42;22.20;56.30
41533;DHT22;27262;-35.248;149.138;2022-12-07T11:33:26;22.20;56.30
41533;DHT22;27262;-35.248;149.138;2022-12-07T11:39:04;22.20;56.40
41533;DHT22;27262;-35.248;149.138;2022-12-07T11:41:40;22.20;56.40
41533;DHT22;27262;-35.248;149.138;2022-12-07T11:44:36;22.20;56.40
41533;DHT22;27262;-35.248;149.138;2022-12-07T11:56:17;22.10;56.50
41533;DHT22;27262;-35.248;149.138;2022-12-07T11:58:47;22.10;56.50
41533;DHT22;27262;-35.248;149.138;2022-12-07T12:01:53;22.10;56.60
41533;DHT22;27262;-35.248;149.138;2022-12-07T12:07:34;22.10;56.70
41533;DHT22;27262;-35.248;149.138;2022-12-07T12:10:43;22.00;56.70
41533;DHT22;27262;-35.248;149.138;2022-12-07T12:22:19;22.00;56.80
41533;DHT22;27262;-35.248;149.138;2022-12-07T12:24:52;22.00;56.90
41533;DHT22;27262;-35.248;149.138;2022-12-07T12:27:36;22.00;57.00
41533;DHT22;27262;-35.248;149.138;2022-12-07T12:30:37;22.00;57.00
41533;DHT22;27262;-35.248;149.138;2022-12-07T12:33:25;22.00;57.10
41533;DHT22;27262;-35.248;149.138;2022-12-07T12:46:59;21.90;57.30
41533;DHT22;27262;-35.248;149.138;2022-12-07T12:49:41;21.90;57.30
41533;DHT22;27262;-35.248;149.138;2022-12-07T12:57:38;21.90;57.30
41533;DHT22;27262;-35.248;149.138;2022-12-07T13:00:20;21.90;57.40
41533;DHT22;27262;-35.248;149.138;2022-12-07T13:02:55;21.90;57.40
41533;DHT22;27262;-35.248;149.138;2022-12-07T13:05:30;21.90;57.50
41533;DHT22;27262;-35.248;149.138;2022-12-07T13:08:24;21.90;57.50
41533;DHT22;27262;-35.248;149.138;2022-12-07T13:11:39;21.90;57.50
41533;DHT22;27262;-35.248;149.138;2022-12-07T13:14:43;21.90;57.60
41533;DHT22;27262;-35.248;149.138;2022-12-07T13:20:04;21.80;57.60
41533;DHT22;27262;-35.248;149.138;2022-12-07T13:22:48;21.80;57.70
41533;DHT22;27262;-35.248;149.138;2022-12-07T13:25:29;21.80;57.70
41533;DHT22;27262;-35.248;149.138;2022-12-07T13:28:17;21.80;57.70
41533;DHT22;27262;-35.248;149.138;2022-12-07T13:31:04;21.80;57.70
41533;DHT22;27262;-35.248;149.138;2022-12-07T13:33:40;21.80;57.70
41533;DHT22;27262;-35.248;149.138;2022-12-07T13:36:25;21.80;57.80
41533;DHT22;27262;-35.248;149.138;2022-12-07T13:38:58;21.80;57.80
41533;DHT22;27262;-35.248;149.138;2022-12-07T13:41:29;21.80;57.80
41533;DHT22;27262;-35.248;149.138;2022-12-07T13:44:12;21.70;57.70
41533;DHT22;27262;-35.248;149.138;2022-12-07T13:49:37;21.80;57.80
41533;DHT22;27262;-35.248;149.138;2022-12-07T13:52:28;21.70;57.80
41533;DHT22;27262;-35.248;149.138;2022-12-07T13:55:01;21.70;57.80
41533;DHT22;27262;-35.248;149.138;2022-12-07T13:57:34;21.70;57.90
41533;DHT22;27262;-35.248;149.138;2022-12-07T14:00:18;21.70;57.90
41533;DHT22;27262;-35.248;149.138;2022-12-07T14:03:20;21.70;57.80
41533;DHT22;27262;-35.248;149.138;2022-12-07T14:06:16;21.70;57.90
41533;DHT22;27262;-35.248;149.138;2022-12-07T14:08:47;21.70;57.90
41533;DHT22;27262;-35.248;149.138;2022-12-07T14:11:30;21.70;57.90
41533;DHT22;27262;-35.248;149.138;2022-12-07T14:14:02;21.60;57.90
41533;DHT22;27262;-35.248;149.138;2022-12-07T14:16:35;21.60;57.90
41533;DHT22;27262;-35.248;149.138;2022-12-07T14:19:42;21.70;57.90
41533;DHT22;27262;-35.248;149.138;2022-12-07T14:25:20;21.60;57.90
41533;DHT22;27262;-35.248;149.138;2022-12-07T14:27:52;21.60;57.90
41533;DHT22;27262;-35.248;149.138;2022-12-07T14:30:30;21.60;58.00
41533;DHT22;27262;-35.248;149.138;2022-12-07T14:33:03;21.60;58.00
41533;DHT22;27262;-35.248;149.138;2022-12-07T14:35:33;21.60;58.00
41533;DHT22;27262;-35.248;149.138;2022-12-07T14:38:04;21.60;58.00
41533;DHT22;27262;-35.248;149.138;2022-12-07T14:40:34;21.60;58.00
41533;DHT22;27262;-35.248;149.138;2022-12-07T14:43:15;21.60;58.00
41533;DHT22;27262;-35.248;149.138;2022-12-07T14:45:46;21.60;57.90
41533;DHT22;27262;-35.248;149.138;2022-12-07T14:48:16;21.60;58.00
41533;DHT22;27262;-35.248;149.138;2022-12-07T14:51:10;21.50;58.00
41533;DHT22;27262;-35.248;149.138;2022-12-07T14:54:01;21.50;58.00
41533;DHT22;27262;-35.248;149.138;2022-12-07T14:56:33;21.50;58.00
41533;DHT22;27262;-35.248;149.138;2022-12-07T14:59:03;21.50;58.00
41533;DHT22;27262;-35.248;149.138;2022-12-07T15:01:34;21.50;58.00
41533;DHT22;27262;-35.248;149.138;2022-12-07T15:04:04;21.50;58.00
41533;DHT22;27262;-35.248;149.138;2022-12-07T15:06:35;21.50;58.00
41533;DHT22;27262;-35.248;149.138;2022-12-07T15:09:05;21.50;58.00
41533;DHT22;27262;-35.248;149.138;2022-12-07T15:11:36;21.50;57.90
41533;DHT22;27262;-35.248;149.138;2022-12-07T15:14:11;21.50;57.90
41533;DHT22;27262;-35.248;149.138;2022-12-07T15:16:43;21.50;57.90
41533;DHT22;27262;-35.248;149.138;2022-12-07T15:19:33;21.50;57.90
41533;DHT22;27262;-35.248;149.138;2022-12-07T15:22:03;21.40;57.80
41533;DHT22;27262;-35.248;149.138;2022-12-07T15:24:34;21.50;57.90
41533;DHT22;27262;-35.248;149.138;2022-12-07T15:27:04;21.40;57.80
41533;DHT22;27262;-35.248;149.138;2022-12-07T15:29:35;21.40;57.80
41533;DHT22;27262;-35.248;149.138;2022-12-07T15:32:05;21.40;57.80
41533;DHT22;27262;-35.248;149.138;2022-12-07T15:34:35;21.40;57.80
41533;DHT22;27262;-35.248;149.138;2022-12-07T15:37:07;21.40;57.70
41533;DHT22;27262;-35.248;149.138;2022-12-07T15:39:38;21.40;57.70
41533;DHT22;27262;-35.248;149.138;2022-12-07T15:42:08;21.40;57.60
41533;DHT22;27262;-35.248;149.138;2022-12-07T15:44:38;21.40;57.60
41533;DHT22;27262;-35.248;149.138;2022-12-07T15:47:27;21.40;57.60
41533;DHT22;27262;-35.248;149.138;2022-12-07T15:49:58;21.40;57.60
41533;DHT22;27262;-35.248;149.138;2022-12-07T15:52:28;21.30;57.50
41533;DHT22;27262;-35.248;149.138;2022-12-07T15:54:58;21.30;57.50
41533;DHT22;27262;-35.248;149.138;2022-12-07T15:57:36;21.30;57.50
41533;DHT22;27262;-35.248;149.138;2022-12-07T16:00:09;21.30;57.50
41533;DHT22;27262;-35.248;149.138;2022-12-07T16:02:40;21.30;57.50
41533;DHT22;27262;-35.248;149.138;2022-12-07T16:05:10;21.30;57.40
41533;DHT22;27262;-35.248;149.138;2022-12-07T16:07:41;21.30;57.40
41533;DHT22;27262;-35.248;149.138;2022-12-07T16:10:11;21.30;57.40
41533;DHT22;27262;-35.248;149.138;2022-12-07T16:12:41;21.20;57.30
41533;DHT22;27262;-35.248;149.138;2022-12-07T16:15:12;21.20;57.30
41533;DHT22;27262;-35.248;149.138;2022-12-07T16:17:48;21.20;57.30
41533;DHT22;27262;-35.248;149.138;2022-12-07T16:20:18;21.20;57.30
41533;DHT22;27262;-35.248;149.138;2022-12-07T16:22:52;21.20;57.20
41533;DHT22;27262;-35.248;149.138;2022-12-07T16:25:22;21.20;57.20
41533;DHT22;27262;-35.248;149.138;2022-12-07T16:27:53;21.20;57.30
41533;DHT22;27262;-35.248;149.138;2022-12-07T16:30:23;21.20;57.20
41533;DHT22;27262;-35.248;149.138;2022-12-07T16:32:54;21.20;57.20
41533;DHT22;27262;-35.248;149.138;2022-12-07T16:35:29;21.20;57.20
41533;DHT22;27262;-35.248;149.138;2022-12-07T16:38:00;21.20;57.20
41533;DHT22;27262;-35.248;149.138;2022-12-07T16:40:30;21.10;57.20
41533;DHT22;27262;-35.248;149.138;2022-12-07T16:43:01;21.10;57.20
41533;DHT22;27262;-35.248;149.138;2022-12-07T16:45:31;21.20;57.10
41533;DHT22;27262;-35.248;149.138;2022-12-07T16:48:02;21.10;57.00
41533;DHT22;27262;-35.248;149.138;2022-12-07T16:50:32;21.10;57.10
41533;DHT22;27262;-35.248;149.138;2022-12-07T16:53:02;21.10;57.10
41533;DHT22;27262;-35.248;149.138;2022-12-07T16:55:39;21.10;57.00
41533;DHT22;27262;-35.248;149.138;2022-12-07T16:58:11;21.10;57.00
41533;DHT22;27262;-35.248;149.138;2022-12-07T17:00:43;21.10;57.00
41533;DHT22;27262;-35.248;149.138;2022-12-07T17:03:13;21.00;57.00
41533;DHT22;27262;-35.248;149.138;2022-12-07T17:05:48;21.00;57.00
41533;DHT22;27262;-35.248;149.138;2022-12-07T17:08:18;21.00;56.90
41533;DHT22;27262;-35.248;149.138;2022-12-07T17:10:51;21.00;56.90
41533;DHT22;27262;-35.248;149.138;2022-12-07T17:13:21;21.00;56.90
41533;DHT22;27262;-35.248;149.138;2022-12-07T17:16:09;21.00;56.90
41533;DHT22;27262;-35.248;149.138;2022-12-07T17:18:40;21.00;57.50
41533;DHT22;27262;-35.248;149.138;2022-12-07T17:21:10;21.00;56.90
41533;DHT22;27262;-35.248;149.138;2022-12-07T17:23:40;21.00;56.90
41533;DHT22;27262;-35.248;149.138;2022-12-07T17:26:17;20.90;56.80
41533;DHT22;27262;-35.248;149.138;2022-12-07T17:28:47;20.90;56.70
41533;DHT22;27262;-35.248;149.138;2022-12-07T17:31:20;20.90;56.80
41533;DHT22;27262;-35.248;149.138;2022-12-07T17:33:50;20.90;56.70
41533;DHT22;27262;-35.248;149.138;2022-12-07T17:36:24;20.90;56.60
41533;DHT22;27262;-35.248;149.138;2022-12-07T17:38:55;20.90;56.60
41533;DHT22;27262;-35.248;149.138;2022-12-07T17:41:28;20.90;56.60
41533;DHT22;27262;-35.248;149.138;2022-12-07T17:44:18;20.90;56.60
41533;DHT22;27262;-35.248;149.138;2022-12-07T17:46:52;20.80;56.60
41533;DHT22;27262;-35.248;149.138;2022-12-07T17:49:32;20.90;56.60
41533;DHT22;27262;-35.248;149.138;2022-12-07T17:52:02;20.80;56.50
41533;DHT22;27262;-35.248;149.138;2022-12-07T17:54:50;20.80;56.50
41533;DHT22;27262;-35.248;149.138;2022-12-07T17:57:22;20.80;56.50
41533;DHT22;27262;-35.248;149.138;2022-12-07T17:59:52;20.80;56.50
41533;DHT22;27262;-35.248;149.138;2022-12-07T18:02:23;20.80;56.50